createdAt,value
2018-05-13T00:00:14.307Z,0.00
2018-05-13T00:01:14.336Z,0.00
2018-05-13T00:02:14.363Z,0.00
2018-05-13T00:03:14.395Z,0.00
2018-05-13T00:04:14.416Z,0.00
2018-05-13T00:05:14.466Z,0.00
2018-05-13T00:06:14.472Z,0.00
2018-05-13T00:07:14.500Z,0.00
2018-05-13T00:08:14.529Z,0.00
2018-05-13T00:09:14.552Z,0.00
2018-05-13T00:10:14.586Z,0.00
2018-05-13T00:11:14.606Z,0.00
2018-05-13T00:12:14.637Z,0.00
2018-05-13T00:13:14.675Z,0.00
2018-05-13T00:14:14.701Z,0.00
2018-05-13T00:15:14.721Z,0.00
2018-05-13T00:16:14.745Z,0.00
2018-05-13T00:17:14.772Z,0.00
2018-05-13T00:18:14.797Z,0.00
2018-05-13T00:19:14.826Z,0.00
2018-05-13T00:20:14.857Z,0.00
2018-05-13T00:21:14.879Z,0.00
2018-05-13T00:22:14.907Z,0.00
2018-05-13T00:23:14.936Z,0.00
2018-05-13T00:24:14.962Z,0.00
2018-05-13T00:25:14.986Z,0.00
2018-05-13T00:26:15.015Z,0.00
2018-05-13T00:27:15.042Z,0.00
2018-05-13T00:28:15.070Z,0.00
2018-05-13T00:29:15.095Z,0.00
2018-05-13T00:30:15.128Z,0.00
2018-05-13T00:31:15.153Z,0.00
2018-05-13T00:32:15.176Z,0.00
2018-05-13T00:33:15.206Z,0.00
2018-05-13T00:34:15.232Z,0.00
2018-05-13T00:35:15.257Z,0.00
2018-05-13T00:36:15.285Z,0.00
2018-05-13T00:37:15.312Z,0.00
2018-05-13T00:38:15.340Z,0.00
2018-05-13T00:39:15.377Z,0.00
2018-05-13T00:40:15.394Z,0.00
2018-05-13T00:41:15.421Z,0.00
2018-05-13T00:42:15.447Z,0.00
2018-05-13T00:43:15.474Z,0.00
2018-05-13T00:44:15.500Z,0.00
2018-05-13T00:45:15.527Z,0.00
2018-05-13T00:46:15.551Z,0.00
2018-05-13T00:47:15.581Z,0.00
2018-05-13T00:48:15.606Z,0.00
2018-05-13T00:49:15.633Z,0.00
2018-05-13T00:50:15.664Z,0.00
2018-05-13T00:51:15.693Z,0.00
2018-05-13T00:52:15.719Z,0.00
2018-05-13T00:53:15.741Z,0.00
2018-05-13T00:54:15.774Z,0.00
2018-05-13T00:55:15.799Z,0.00
2018-05-13T00:56:15.825Z,0.00
2018-05-13T00:57:15.853Z,0.00
2018-05-13T00:58:15.879Z,0.00
2018-05-13T00:59:15.910Z,0.00
2018-05-13T01:00:15.930Z,0.00
2018-05-13T01:01:15.963Z,0.00
2018-05-13T01:02:15.984Z,0.00
2018-05-13T01:03:16.015Z,0.00
2018-05-13T01:04:16.035Z,0.00
2018-05-13T01:05:16.065Z,0.00
2018-05-13T01:06:16.095Z,0.00
2018-05-13T01:07:16.124Z,0.00
2018-05-13T01:08:16.145Z,0.00
2018-05-13T01:09:16.178Z,0.00
2018-05-13T01:10:16.204Z,0.00
2018-05-13T01:11:16.224Z,0.00
2018-05-13T01:12:16.249Z,0.00
2018-05-13T01:13:16.279Z,0.00
2018-05-13T01:14:16.308Z,0.00
2018-05-13T01:15:16.330Z,0.00
2018-05-13T01:16:16.363Z,0.00
2018-05-13T01:17:16.389Z,0.00
2018-05-13T01:18:16.417Z,0.00
2018-05-13T01:19:16.443Z,0.00
2018-05-13T01:20:16.462Z,0.00
2018-05-13T01:21:16.494Z,0.00
2018-05-13T01:22:16.523Z,0.00
2018-05-13T01:23:16.550Z,0.00
2018-05-13T01:24:16.577Z,0.00
2018-05-13T01:25:16.599Z,0.00
2018-05-13T01:26:16.629Z,0.00
2018-05-13T01:27:16.654Z,0.00
2018-05-13T01:28:16.683Z,0.00
2018-05-13T01:29:16.709Z,0.00
2018-05-13T01:30:16.736Z,0.00
2018-05-13T01:31:16.768Z,0.00
2018-05-13T01:32:16.793Z,0.00
2018-05-13T01:33:16.819Z,0.00
2018-05-13T01:34:16.846Z,0.00
2018-05-13T01:35:16.875Z,0.00
2018-05-13T01:36:16.900Z,0.00
2018-05-13T01:37:16.923Z,0.00
2018-05-13T01:38:16.956Z,0.00
2018-05-13T01:39:16.982Z,0.00
2018-05-13T01:40:17.010Z,0.00
2018-05-13T01:41:17.038Z,0.00
2018-05-13T01:42:17.063Z,0.00
2018-05-13T01:43:17.089Z,0.00
2018-05-13T01:44:17.115Z,0.00
2018-05-13T01:45:17.137Z,0.00
2018-05-13T01:46:17.177Z,0.00
2018-05-13T01:47:17.195Z,0.00
2018-05-13T01:48:17.224Z,0.00
2018-05-13T01:49:17.251Z,0.00
2018-05-13T01:50:17.278Z,0.00
2018-05-13T01:51:17.302Z,0.00
2018-05-13T01:52:17.334Z,0.00
2018-05-13T01:53:17.359Z,0.00
2018-05-13T01:54:17.382Z,0.00
2018-05-13T01:55:17.412Z,0.00
2018-05-13T01:56:17.438Z,0.00
2018-05-13T01:57:17.490Z,0.00
2018-05-13T01:58:17.488Z,0.00
2018-05-13T01:59:17.522Z,0.00
2018-05-13T02:00:17.542Z,0.00
2018-05-13T02:01:17.572Z,0.00
2018-05-13T02:02:17.599Z,0.00
2018-05-13T02:03:17.636Z,0.00
2018-05-13T02:04:17.657Z,0.00
2018-05-13T02:05:17.677Z,0.00
2018-05-13T02:06:17.705Z,0.00
2018-05-13T02:07:17.733Z,0.00
2018-05-13T02:08:17.763Z,0.00
2018-05-13T02:09:17.786Z,0.00
2018-05-13T02:10:17.818Z,0.00
2018-05-13T02:11:17.837Z,0.00
2018-05-13T02:12:17.868Z,0.00
2018-05-13T02:13:17.894Z,0.00
2018-05-13T02:14:17.924Z,0.00
2018-05-13T02:15:17.950Z,0.00
2018-05-13T02:16:17.973Z,0.00
2018-05-13T02:17:17.997Z,0.00
2018-05-13T02:18:18.028Z,0.00
2018-05-13T02:19:18.052Z,0.00
2018-05-13T02:20:18.080Z,0.00
2018-05-13T02:21:18.110Z,0.00
2018-05-13T02:22:18.131Z,0.00
2018-05-13T02:23:18.161Z,0.00
2018-05-13T02:24:18.191Z,0.00
2018-05-13T02:25:18.210Z,0.00
2018-05-13T02:26:18.240Z,0.00
2018-05-13T02:27:18.268Z,0.00
2018-05-13T02:28:18.294Z,0.00
2018-05-13T02:29:18.320Z,0.00
2018-05-13T02:30:18.352Z,0.00
2018-05-13T02:31:18.371Z,0.00
2018-05-13T02:32:18.396Z,0.00
2018-05-13T02:33:18.430Z,0.00
2018-05-13T02:34:18.456Z,4.00
2018-05-13T02:35:18.483Z,4.00
2018-05-13T02:36:18.507Z,4.00
2018-05-13T02:37:18.544Z,4.00
2018-05-13T02:38:18.562Z,4.00
2018-05-13T02:39:18.591Z,4.00
2018-05-13T02:40:18.610Z,4.00
2018-05-13T02:41:18.639Z,0.00
2018-05-13T02:42:18.671Z,0.00
2018-05-13T02:43:18.693Z,0.00
2018-05-13T02:44:18.730Z,4.00
2018-05-13T02:45:18.761Z,4.00
2018-05-13T02:46:18.772Z,4.00
2018-05-13T02:47:18.800Z,4.00
2018-05-13T02:48:18.826Z,4.00
2018-05-13T02:49:18.868Z,4.00
2018-05-13T02:50:18.878Z,8.00
2018-05-13T02:51:18.910Z,4.00
2018-05-13T02:52:18.940Z,8.00
2018-05-13T02:53:18.963Z,8.00
2018-05-13T02:54:18.986Z,8.00
2018-05-13T02:55:19.012Z,8.00
2018-05-13T02:56:19.041Z,8.00
2018-05-13T02:57:19.067Z,8.00
2018-05-13T02:58:19.093Z,12.00
2018-05-13T02:59:19.126Z,12.00
2018-05-13T03:00:19.149Z,16.00
2018-05-13T03:01:19.169Z,20.00
2018-05-13T03:02:19.203Z,20.00
2018-05-13T03:03:19.225Z,24.00
2018-05-13T03:04:19.253Z,28.00
2018-05-13T03:05:19.276Z,32.00
2018-05-13T03:06:19.305Z,32.00
2018-05-13T03:07:19.329Z,40.00
2018-05-13T03:08:19.358Z,48.00
2018-05-13T03:09:19.386Z,52.00
2018-05-13T03:10:19.413Z,60.00
2018-05-13T03:11:19.440Z,68.00
2018-05-13T03:12:19.469Z,76.00
2018-05-13T03:13:19.489Z,84.00
2018-05-13T03:14:19.519Z,92.00
2018-05-13T03:15:19.550Z,104.00
2018-05-13T03:16:19.569Z,116.00
2018-05-13T03:17:19.600Z,128.00
2018-05-13T03:18:19.628Z,144.00
2018-05-13T03:19:19.649Z,156.00
2018-05-13T03:20:19.675Z,172.00
2018-05-13T03:21:19.704Z,192.00
2018-05-13T03:22:19.740Z,208.00
2018-05-13T03:23:19.759Z,228.00
2018-05-13T03:24:19.780Z,244.00
2018-05-13T03:25:19.808Z,264.00
2018-05-13T03:26:19.836Z,288.00
2018-05-13T03:27:19.864Z,304.00
2018-05-13T03:28:19.889Z,324.00
2018-05-13T03:29:19.920Z,348.00
2018-05-13T03:30:19.938Z,372.00
2018-05-13T03:31:19.969Z,396.00
2018-05-13T03:32:19.995Z,416.00
2018-05-13T03:33:20.025Z,436.00
2018-05-13T03:34:20.058Z,460.00
2018-05-13T03:35:20.076Z,484.00
2018-05-13T03:36:20.099Z,512.00
2018-05-13T03:37:20.129Z,536.00
2018-05-13T03:38:20.165Z,556.00
2018-05-13T03:39:20.179Z,580.00
2018-05-13T03:40:20.211Z,608.00
2018-05-13T03:41:20.236Z,640.00
2018-05-13T03:42:20.262Z,676.00
2018-05-13T03:43:20.290Z,708.00
2018-05-13T03:44:20.315Z,736.00
2018-05-13T03:45:20.339Z,764.00
2018-05-13T03:46:20.364Z,792.00
2018-05-13T03:47:20.398Z,824.00
2018-05-13T03:48:20.426Z,856.00
2018-05-13T03:49:20.449Z,888.00
2018-05-13T03:50:20.483Z,928.00
2018-05-13T03:51:20.502Z,972.00
2018-05-13T03:52:20.527Z,1012.00
2018-05-13T03:53:20.553Z,1048.00
2018-05-13T03:54:20.577Z,1084.00
2018-05-13T03:55:20.603Z,1120.00
2018-05-13T03:56:20.632Z,1160.00
2018-05-13T03:57:20.657Z,1192.00
2018-05-13T03:58:20.690Z,1228.00
2018-05-13T03:59:20.713Z,1264.00
2018-05-13T04:00:20.748Z,1296.00
2018-05-13T04:01:20.764Z,1324.00
2018-05-13T04:02:20.786Z,1352.00
2018-05-13T04:03:20.821Z,1380.00
2018-05-13T04:04:20.844Z,1412.00
2018-05-13T04:05:20.873Z,1440.00
2018-05-13T04:06:20.901Z,1476.00
2018-05-13T04:07:20.980Z,1508.00
2018-05-13T04:08:20.954Z,1540.00
2018-05-13T04:09:20.976Z,1576.00
2018-05-13T04:10:21.002Z,1608.00
2018-05-13T04:11:21.031Z,1648.00
2018-05-13T04:12:21.057Z,1688.00
2018-05-13T04:13:21.091Z,1732.00
2018-05-13T04:14:21.106Z,1784.00
2018-05-13T04:15:21.138Z,1820.00
2018-05-13T04:16:21.163Z,1868.00
2018-05-13T04:17:21.187Z,1916.00
2018-05-13T04:18:21.220Z,1968.00
2018-05-13T04:19:21.245Z,2024.00
2018-05-13T04:20:21.276Z,2088.00
2018-05-13T04:21:21.292Z,2156.00
2018-05-13T04:22:21.321Z,2220.00
2018-05-13T04:23:21.347Z,2276.00
2018-05-13T04:24:21.372Z,2320.00
2018-05-13T04:25:21.401Z,2356.00
2018-05-13T04:26:21.427Z,2372.00
2018-05-13T04:27:21.459Z,2372.00
2018-05-13T04:28:21.485Z,2368.00
2018-05-13T04:29:21.507Z,2368.00
2018-05-13T04:30:21.532Z,2380.00
2018-05-13T04:31:21.561Z,2400.00
2018-05-13T04:32:21.587Z,2424.00
2018-05-13T04:33:21.615Z,2448.00
2018-05-13T04:34:21.641Z,2492.00
2018-05-13T04:35:21.672Z,2532.00
2018-05-13T04:36:21.695Z,2580.00
2018-05-13T04:37:21.726Z,2612.00
2018-05-13T04:38:21.746Z,2632.00
2018-05-13T04:39:21.773Z,2640.00
2018-05-13T04:40:21.801Z,2648.00
2018-05-13T04:41:21.832Z,2656.00
2018-05-13T04:42:21.861Z,2688.00
2018-05-13T04:43:21.881Z,2712.00
2018-05-13T04:44:21.912Z,2748.00
2018-05-13T04:45:21.936Z,2780.00
2018-05-13T04:46:21.967Z,2820.00
2018-05-13T04:47:21.997Z,2860.00
2018-05-13T04:48:22.015Z,2912.00
2018-05-13T04:49:22.045Z,2972.00
2018-05-13T04:50:22.065Z,3032.00
2018-05-13T04:51:22.094Z,3088.00
2018-05-13T04:52:22.120Z,3144.00
2018-05-13T04:53:22.146Z,3204.00
2018-05-13T04:54:22.181Z,3256.00
2018-05-13T04:55:22.201Z,3304.00
2018-05-13T04:56:22.228Z,3336.00
2018-05-13T04:57:22.255Z,3372.00
2018-05-13T04:58:22.279Z,3392.00
2018-05-13T04:59:22.310Z,3416.00
2018-05-13T05:00:22.335Z,3428.00
2018-05-13T05:01:22.361Z,3440.00
2018-05-13T05:02:22.390Z,3452.00
2018-05-13T05:03:22.415Z,3472.00
2018-05-13T05:04:22.444Z,3508.00
2018-05-13T05:05:22.519Z,3540.00
2018-05-13T05:06:22.491Z,3580.00
2018-05-13T05:07:22.528Z,3620.00
2018-05-13T05:08:22.544Z,3648.00
2018-05-13T05:09:22.580Z,3668.00
2018-05-13T05:10:22.602Z,3688.00
2018-05-13T05:11:22.634Z,3712.00
2018-05-13T05:12:22.656Z,3728.00
2018-05-13T05:13:22.686Z,3752.00
2018-05-13T05:14:22.709Z,3776.00
2018-05-13T05:15:22.735Z,3800.00
2018-05-13T05:16:22.765Z,3832.00
2018-05-13T05:17:22.794Z,3856.00
2018-05-13T05:18:22.819Z,3872.00
2018-05-13T05:19:22.846Z,3892.00
2018-05-13T05:20:22.869Z,3904.00
2018-05-13T05:21:22.894Z,3920.00
2018-05-13T05:22:22.927Z,3940.00
2018-05-13T05:23:22.950Z,3964.00
2018-05-13T05:24:22.984Z,3992.00
2018-05-13T05:25:23.008Z,4016.00
2018-05-13T05:26:23.036Z,4040.00
2018-05-13T05:27:23.062Z,4060.00
2018-05-13T05:28:23.086Z,4076.00
2018-05-13T05:29:23.112Z,4092.00
2018-05-13T05:30:23.138Z,4116.00
2018-05-13T05:31:23.163Z,4144.00
2018-05-13T05:32:23.194Z,4168.00
2018-05-13T05:33:23.218Z,4184.00
2018-05-13T05:34:23.249Z,4196.00
2018-05-13T05:35:23.273Z,4212.00
2018-05-13T05:36:23.303Z,4228.00
2018-05-13T05:37:23.330Z,4252.00
2018-05-13T05:38:23.357Z,4268.00
2018-05-13T05:39:23.387Z,4292.00
2018-05-13T05:40:23.403Z,4308.00
2018-05-13T05:41:23.432Z,4320.00
2018-05-13T05:42:23.462Z,4344.00
2018-05-13T05:43:23.488Z,4372.00
2018-05-13T05:44:23.522Z,4384.00
2018-05-13T05:45:23.538Z,4404.00
2018-05-13T05:46:23.569Z,4424.00
2018-05-13T05:47:23.597Z,4436.00
2018-05-13T05:48:23.698Z,4452.00
2018-05-13T05:49:23.656Z,4472.00
2018-05-13T05:50:23.679Z,4476.00
2018-05-13T05:51:23.709Z,4492.00
2018-05-13T05:52:23.732Z,4512.00
2018-05-13T05:53:23.755Z,4524.00
2018-05-13T05:54:23.788Z,4528.00
2018-05-13T05:55:23.812Z,4544.00
2018-05-13T05:56:23.838Z,4556.00
2018-05-13T05:57:23.868Z,4568.00
2018-05-13T05:58:23.899Z,4584.00
2018-05-13T05:59:23.925Z,4600.00
2018-05-13T06:00:23.950Z,4620.00
2018-05-13T06:01:23.981Z,4624.00
2018-05-13T06:02:24.005Z,4640.00
2018-05-13T06:03:24.032Z,4652.00
2018-05-13T06:04:24.057Z,4656.00
2018-05-13T06:05:24.090Z,4664.00
2018-05-13T06:06:24.117Z,4660.00
2018-05-13T06:07:24.138Z,4672.00
2018-05-13T06:08:24.163Z,4672.00
2018-05-13T06:09:24.199Z,4688.00
2018-05-13T06:10:24.221Z,4696.00
2018-05-13T06:11:24.246Z,4712.00
2018-05-13T06:12:24.276Z,4720.00
2018-05-13T06:13:24.303Z,4736.00
2018-05-13T06:14:24.334Z,4740.00
2018-05-13T06:15:24.359Z,4752.00
2018-05-13T06:16:24.383Z,4764.00
2018-05-13T06:17:24.415Z,4780.00
2018-05-13T06:18:24.441Z,4792.00
2018-05-13T06:19:24.465Z,4804.00
2018-05-13T06:20:24.492Z,4816.00
2018-05-13T06:21:24.525Z,4828.00
2018-05-13T06:22:24.551Z,4836.00
2018-05-13T06:23:24.571Z,4836.00
2018-05-13T06:24:24.607Z,4856.00
2018-05-13T06:25:24.631Z,4872.00
2018-05-13T06:26:24.658Z,4896.00
2018-05-13T06:27:24.682Z,4916.00
2018-05-13T06:28:24.718Z,4936.00
2018-05-13T06:29:24.737Z,4944.00
2018-05-13T06:30:24.766Z,4956.00
2018-05-13T06:31:24.796Z,4964.00
2018-05-13T06:32:24.820Z,4984.00
2018-05-13T06:33:24.846Z,5000.00
2018-05-13T06:34:24.876Z,5012.00
2018-05-13T06:35:24.902Z,5036.00
2018-05-13T06:36:24.931Z,5060.00
2018-05-13T06:37:24.959Z,5080.00
2018-05-13T06:38:24.992Z,5096.00
2018-05-13T06:39:25.015Z,5124.00
2018-05-13T06:40:25.042Z,5140.00
2018-05-13T06:41:25.071Z,5164.00
2018-05-13T06:42:25.097Z,5184.00
2018-05-13T06:43:25.123Z,5204.00
2018-05-13T06:44:25.192Z,5220.00
2018-05-13T06:45:25.177Z,5248.00
2018-05-13T06:46:25.212Z,5280.00
2018-05-13T06:47:25.229Z,5316.00
2018-05-13T06:48:25.262Z,5352.00
2018-05-13T06:49:25.286Z,5384.00
2018-05-13T06:50:25.315Z,5416.00
2018-05-13T06:51:25.453Z,5456.00
2018-05-13T06:52:25.374Z,5464.00
2018-05-13T06:53:25.401Z,5484.00
2018-05-13T06:54:25.434Z,5468.00
2018-05-13T06:55:25.456Z,5456.00
2018-05-13T06:56:25.480Z,5476.00
2018-05-13T06:57:25.596Z,5480.00
2018-05-13T06:58:25.536Z,5520.00
2018-05-13T06:59:25.566Z,5552.00
2018-05-13T07:00:25.590Z,5560.00
2018-05-13T07:01:25.618Z,5504.00
2018-05-13T07:02:25.649Z,5508.00
2018-05-13T07:03:25.675Z,5592.00
2018-05-13T07:04:25.709Z,5596.00
2018-05-13T07:05:25.733Z,5628.00
2018-05-13T07:06:25.760Z,5692.00
2018-05-13T07:07:25.789Z,5652.00
2018-05-13T07:08:25.815Z,5804.00
2018-05-13T07:09:25.838Z,6108.00
2018-05-13T07:10:25.941Z,6488.00
2018-05-13T07:11:25.902Z,6692.00
2018-05-13T07:12:25.929Z,6744.00
2018-05-13T07:13:25.963Z,6860.00
2018-05-13T07:14:25.979Z,7324.00
2018-05-13T07:15:26.005Z,8024.00
2018-05-13T07:16:26.108Z,8312.00
2018-05-13T07:17:26.069Z,8100.00
2018-05-13T07:18:26.090Z,7636.00
2018-05-13T07:19:26.129Z,7612.00
2018-05-13T07:20:26.155Z,7772.00
2018-05-13T07:21:26.174Z,7652.00
2018-05-13T07:22:26.214Z,7456.00
2018-05-13T07:23:26.237Z,7428.00
2018-05-13T07:24:26.259Z,7248.00
2018-05-13T07:25:26.287Z,6940.00
2018-05-13T07:26:26.318Z,6776.00
2018-05-13T07:27:26.389Z,6692.00
2018-05-13T07:28:26.374Z,6764.00
2018-05-13T07:29:26.404Z,7072.00
2018-05-13T07:30:26.430Z,7456.00
2018-05-13T07:31:26.457Z,7536.00
2018-05-13T07:32:26.491Z,7320.00
2018-05-13T07:33:26.515Z,6892.00
2018-05-13T07:34:26.548Z,6484.00
2018-05-13T07:35:26.572Z,6216.00
2018-05-13T07:36:26.605Z,6016.00
2018-05-13T07:37:26.625Z,5888.00
2018-05-13T07:38:26.659Z,5840.00
2018-05-13T07:39:26.683Z,5828.00
2018-05-13T07:40:26.719Z,5804.00
2018-05-13T07:41:26.739Z,5768.00
2018-05-13T07:42:26.772Z,5752.00
2018-05-13T07:43:26.885Z,5752.00
2018-05-13T07:44:26.829Z,5772.00
2018-05-13T07:45:26.857Z,5800.00
2018-05-13T07:46:26.886Z,5816.00
2018-05-13T07:47:26.913Z,5824.00
2018-05-13T07:48:26.939Z,5812.00
2018-05-13T07:49:26.967Z,5804.00
2018-05-13T07:50:26.998Z,5828.00
2018-05-13T07:51:27.025Z,5856.00
2018-05-13T07:52:27.053Z,5904.00
2018-05-13T07:53:27.085Z,5932.00
2018-05-13T07:54:27.108Z,5916.00
2018-05-13T07:55:27.142Z,5932.00
2018-05-13T07:56:27.178Z,5960.00
2018-05-13T07:57:27.204Z,5964.00
2018-05-13T07:58:27.223Z,5992.00
2018-05-13T07:59:27.254Z,6032.00
2018-05-13T08:00:27.281Z,6040.00
2018-05-13T08:01:27.312Z,6040.00
2018-05-13T08:02:27.340Z,6024.00
2018-05-13T08:03:27.368Z,5992.00
2018-05-13T08:04:27.393Z,5952.00
2018-05-13T08:05:27.427Z,5924.00
2018-05-13T08:06:27.455Z,5912.00
2018-05-13T08:07:27.483Z,5884.00
2018-05-13T08:08:27.507Z,5844.00
2018-05-13T08:09:27.539Z,5820.00
2018-05-13T08:10:27.566Z,5796.00
2018-05-13T08:11:27.595Z,5780.00
2018-05-13T08:12:27.623Z,5776.00
2018-05-13T08:13:27.653Z,5788.00
2018-05-13T08:14:27.677Z,5784.00
2018-05-13T08:15:27.711Z,5768.00
2018-05-13T08:16:27.732Z,5788.00
2018-05-13T08:17:27.762Z,5792.00
2018-05-13T08:18:27.795Z,5808.00
2018-05-13T08:19:27.822Z,5840.00
2018-05-13T08:20:27.903Z,5852.00
2018-05-13T08:21:27.881Z,5872.00
2018-05-13T08:22:27.907Z,5896.00
2018-05-13T08:23:27.944Z,5956.00
2018-05-13T08:24:27.962Z,5992.00
2018-05-13T08:25:27.995Z,6016.00
2018-05-13T08:26:28.018Z,6012.00
2018-05-13T08:27:28.046Z,6028.00
2018-05-13T08:28:28.078Z,6040.00
2018-05-13T08:29:28.101Z,6044.00
2018-05-13T08:30:28.131Z,6064.00
2018-05-13T08:31:28.163Z,6088.00
2018-05-13T08:32:28.186Z,6112.00
2018-05-13T08:33:28.223Z,6152.00
2018-05-13T08:34:28.245Z,6192.00
2018-05-13T08:35:28.275Z,6200.00
2018-05-13T08:36:28.306Z,6216.00
2018-05-13T08:37:28.335Z,6240.00
2018-05-13T08:38:28.362Z,6284.00
2018-05-13T08:39:28.392Z,6296.00
2018-05-13T08:40:28.427Z,6336.00
2018-05-13T08:41:28.459Z,6364.00
2018-05-13T08:42:28.477Z,6364.00
2018-05-13T08:43:28.501Z,6380.00
2018-05-13T08:44:28.536Z,6388.00
2018-05-13T08:45:28.564Z,6384.00
2018-05-13T08:46:28.592Z,6384.00
2018-05-13T08:47:28.625Z,6364.00
2018-05-13T08:48:28.738Z,6376.00
2018-05-13T08:49:28.676Z,6388.00
2018-05-13T08:50:28.707Z,6396.00
2018-05-13T08:51:28.733Z,6456.00
2018-05-13T08:52:28.764Z,6488.00
2018-05-13T08:53:28.787Z,6516.00
2018-05-13T08:54:28.816Z,6540.00
2018-05-13T08:55:28.845Z,6552.00
2018-05-13T08:56:28.875Z,6560.00
2018-05-13T08:57:28.904Z,6552.00
2018-05-13T08:58:28.930Z,6552.00
2018-05-13T08:59:28.967Z,6520.00
2018-05-13T09:00:28.995Z,6512.00
2018-05-13T09:01:29.024Z,6496.00
2018-05-13T09:02:29.054Z,6500.00
2018-05-13T09:03:29.080Z,6524.00
2018-05-13T09:04:29.108Z,6548.00
2018-05-13T09:05:29.139Z,6548.00
2018-05-13T09:06:29.160Z,6544.00
2018-05-13T09:07:29.194Z,6548.00
2018-05-13T09:08:29.244Z,6640.00
2018-05-13T09:09:29.249Z,6680.00
2018-05-13T09:10:29.283Z,6756.00
2018-05-13T09:11:29.306Z,6796.00
2018-05-13T09:12:29.334Z,6824.00
2018-05-13T09:13:29.372Z,6844.00
2018-05-13T09:14:29.410Z,6860.00
2018-05-13T09:15:29.420Z,6920.00
2018-05-13T09:16:29.449Z,6932.00
2018-05-13T09:17:29.485Z,6900.00
2018-05-13T09:18:29.512Z,6876.00
2018-05-13T09:19:29.535Z,6872.00
2018-05-13T09:20:29.617Z,6868.00
2018-05-13T09:21:29.599Z,6872.00
2018-05-13T09:22:29.624Z,6848.00
2018-05-13T09:23:29.651Z,6868.00
2018-05-13T09:24:29.679Z,6904.00
2018-05-13T09:25:29.710Z,6936.00
2018-05-13T09:26:29.777Z,7024.00
2018-05-13T09:27:29.769Z,7112.00
2018-05-13T09:28:29.804Z,7144.00
2018-05-13T09:29:29.830Z,7184.00
2018-05-13T09:30:29.861Z,7196.00
2018-05-13T09:31:29.885Z,7220.00
2018-05-13T09:32:29.913Z,7188.00
2018-05-13T09:33:29.945Z,7188.00
2018-05-13T09:34:29.974Z,7220.00
2018-05-13T09:35:30.000Z,7252.00
2018-05-13T09:36:30.030Z,7280.00
2018-05-13T09:37:30.062Z,7300.00
2018-05-13T09:38:30.088Z,7336.00
2018-05-13T09:39:30.191Z,7428.00
2018-05-13T09:40:30.152Z,7476.00
2018-05-13T09:41:30.177Z,7504.00
2018-05-13T09:42:30.210Z,7528.00
2018-05-13T09:43:30.244Z,7528.00
2018-05-13T09:44:30.262Z,7496.00
2018-05-13T09:45:30.288Z,7700.00
2018-05-13T09:46:30.318Z,7612.00
2018-05-13T09:47:30.349Z,7636.00
2018-05-13T09:48:30.386Z,7700.00
2018-05-13T09:49:30.414Z,7756.00
2018-05-13T09:50:30.437Z,7860.00
2018-05-13T09:51:30.471Z,7932.00
2018-05-13T09:52:30.494Z,7968.00
2018-05-13T09:53:30.533Z,8080.00
2018-05-13T09:54:30.555Z,8080.00
2018-05-13T09:55:30.585Z,8120.00
2018-05-13T09:56:30.612Z,8204.00
2018-05-13T09:57:30.647Z,8300.00
2018-05-13T09:58:30.668Z,8356.00
2018-05-13T09:59:30.700Z,8324.00
2018-05-13T10:00:30.730Z,8368.00
2018-05-13T10:01:30.763Z,8424.00
2018-05-13T10:02:30.788Z,8500.00
2018-05-13T10:03:30.818Z,8616.00
2018-05-13T10:04:30.841Z,8736.00
2018-05-13T10:05:30.873Z,8816.00
2018-05-13T10:06:30.905Z,8868.00
2018-05-13T10:07:30.938Z,8936.00
2018-05-13T10:08:30.966Z,9016.00
2018-05-13T10:09:31.004Z,9068.00
2018-05-13T10:10:31.022Z,9084.00
2018-05-13T10:11:31.057Z,9204.00
2018-05-13T10:12:31.093Z,9232.00
2018-05-13T10:13:31.121Z,9276.00
2018-05-13T10:14:31.137Z,9392.00
2018-05-13T10:15:31.169Z,9324.00
2018-05-13T10:16:31.214Z,9348.00
2018-05-13T10:17:31.232Z,9488.00
2018-05-13T10:18:31.267Z,9780.00
2018-05-13T10:19:31.290Z,9956.00
2018-05-13T10:20:31.322Z,10132.00
2018-05-13T10:21:31.353Z,10172.00
2018-05-13T10:22:31.380Z,10296.00
2018-05-13T10:23:31.406Z,10424.00
2018-05-13T10:24:31.441Z,10476.00
2018-05-13T10:25:31.467Z,10636.00
2018-05-13T10:26:31.501Z,10636.00
2018-05-13T10:27:31.532Z,10760.00
2018-05-13T10:28:31.552Z,11116.00
2018-05-13T10:29:31.590Z,11360.00
2018-05-13T10:30:31.615Z,11376.00
2018-05-13T10:31:31.647Z,11888.00
2018-05-13T10:32:31.678Z,12160.00
2018-05-13T10:33:31.702Z,12576.00
2018-05-13T10:34:31.730Z,12384.00
2018-05-13T10:35:31.762Z,12892.00
2018-05-13T10:36:31.789Z,13984.00
2018-05-13T10:37:31.824Z,13576.00
2018-05-13T10:38:31.850Z,12928.00
2018-05-13T10:39:31.881Z,13056.00
2018-05-13T10:40:31.915Z,13708.00
2018-05-13T10:41:31.943Z,14300.00
2018-05-13T10:42:32.015Z,15148.00
2018-05-13T10:43:32.000Z,14828.00
2018-05-13T10:44:32.039Z,12616.00
2018-05-13T10:45:32.063Z,15640.00
2018-05-13T10:46:32.094Z,18816.00
2018-05-13T10:47:32.122Z,18752.00
2018-05-13T10:48:32.152Z,17328.00
2018-05-13T10:49:32.186Z,22304.00
2018-05-13T10:50:32.218Z,24896.00
2018-05-13T10:51:32.248Z,25504.00
2018-05-13T10:52:32.306Z,27616.00
2018-05-13T10:53:32.322Z,17332.00
2018-05-13T10:54:32.342Z,34400.00
2018-05-13T10:55:32.366Z,37920.00
2018-05-13T10:56:32.407Z,19616.00
2018-05-13T10:57:32.435Z,17096.00
2018-05-13T10:58:32.462Z,41120.00
2018-05-13T10:59:32.492Z,41088.00
2018-05-13T11:00:32.520Z,41728.00
2018-05-13T11:01:32.557Z,39744.00
2018-05-13T11:02:32.584Z,17376.00
2018-05-13T11:03:32.617Z,26336.00
2018-05-13T11:04:32.645Z,43744.00
2018-05-13T11:05:32.681Z,44192.00
2018-05-13T11:06:32.710Z,44288.00
2018-05-13T11:07:32.749Z,45248.00
2018-05-13T11:08:32.856Z,45216.00
2018-05-13T11:09:32.812Z,44896.00
2018-05-13T11:10:32.847Z,45632.00
2018-05-13T11:11:32.880Z,44992.00
2018-05-13T11:12:32.910Z,42976.00
2018-05-13T11:13:32.958Z,36864.00
2018-05-13T11:14:32.983Z,22976.00
2018-05-13T11:15:33.020Z,49120.00
2018-05-13T11:16:33.045Z,46912.00
2018-05-13T11:17:33.079Z,36768.00
2018-05-13T11:18:33.119Z,23456.00
2018-05-13T11:19:33.149Z,48288.00
2018-05-13T11:20:33.262Z,49088.00
2018-05-13T11:21:33.232Z,48608.00
2018-05-13T11:22:33.254Z,47232.00
2018-05-13T11:23:33.296Z,48416.00
2018-05-13T11:24:33.325Z,48576.00
2018-05-13T11:25:33.365Z,46368.00
2018-05-13T11:26:33.402Z,17128.00
2018-05-13T11:27:33.437Z,19296.00
2018-05-13T11:28:33.479Z,30304.00
2018-05-13T11:29:33.509Z,18912.00
2018-05-13T11:30:33.549Z,17172.00
2018-05-13T11:31:33.584Z,49504.00
2018-05-13T11:32:33.616Z,51520.00
2018-05-13T11:33:33.659Z,54912.00
2018-05-13T11:34:33.687Z,56512.00
2018-05-13T11:35:33.724Z,55520.00
2018-05-13T11:36:33.758Z,54336.00
2018-05-13T11:37:33.800Z,44416.00
2018-05-13T11:38:33.838Z,56032.00
2018-05-13T11:39:33.869Z,56288.00
2018-05-13T11:40:33.902Z,54336.00
2018-05-13T11:41:33.950Z,31552.00
2018-05-13T11:42:33.985Z,60032.00
2018-05-13T11:43:34.014Z,59680.00
2018-05-13T11:44:34.052Z,58368.00
2018-05-13T11:45:34.087Z,59808.00
2018-05-13T11:46:34.211Z,57056.00
2018-05-13T11:47:34.158Z,57824.00
2018-05-13T11:48:34.197Z,58496.00
2018-05-13T11:49:34.239Z,59072.00
2018-05-13T11:50:34.273Z,60352.00
2018-05-13T11:51:34.308Z,58240.00
2018-05-13T11:52:34.353Z,57952.00
2018-05-13T11:53:34.383Z,60352.00
2018-05-13T11:54:34.422Z,59616.00
2018-05-13T11:55:34.457Z,62144.00
2018-05-13T11:56:34.533Z,17880.00
2018-05-13T11:57:34.540Z,16908.00
2018-05-13T11:58:34.580Z,63744.00
2018-05-13T11:59:34.613Z,20256.00
2018-05-13T12:00:34.654Z,64992.00
2018-05-13T12:01:34.689Z,66080.00
2018-05-13T12:02:34.728Z,69856.00
2018-05-13T12:03:34.762Z,66016.00
2018-05-13T12:04:34.799Z,64768.00
2018-05-13T12:05:34.850Z,68768.00
2018-05-13T12:06:34.888Z,67552.00
2018-05-13T12:07:34.918Z,70464.00
2018-05-13T12:08:34.954Z,69856.00
2018-05-13T12:09:34.992Z,67136.00
2018-05-13T12:10:35.037Z,65408.00
2018-05-13T12:11:35.066Z,69280.00
2018-05-13T12:12:35.107Z,67904.00
2018-05-13T12:13:35.150Z,66176.00
2018-05-13T12:14:35.183Z,66976.00
2018-05-13T12:15:35.250Z,67040.00
2018-05-13T12:16:35.262Z,63040.00
2018-05-13T12:17:35.301Z,38528.00
2018-05-13T12:18:35.344Z,21376.00
2018-05-13T12:19:35.381Z,33408.00
2018-05-13T12:20:35.428Z,45408.00